Time;durP1;ratioP1;P1;durP2;ratioP2;P2;SDS_P1;SDS_P2;PMS_P1;PMS_P2;Temp;Humidity;BMP_temperature;BMP_pressure;BME280_temperature;BME280_humidity;BME280_pressure;Samples;Min_cycle;Max_cycle;Signal;HPM_P1;HPM_P2
2021/06/08 00:01:41;;;;;;;;;;;;;;;14.11;60.02;97200.66;1692309;84;20147;-78
2021/06/08 00:04:07;;;;;;;;;;;;;;;14.10;60.07;97202.48;1693151;84;20097;-80
2021/06/08 00:06:36;;;;;;;;;;;;;;;14.09;61.47;97202.14;1692909;84;20109;-79
2021/06/08 00:09:03;;;;;;;;;;;;;;;14.10;59.00;97198.98;1692525;84;20097;-79
2021/06/08 00:11:29;;;;;;;;;;;;;;;14.08;60.65;97197.81;1692682;85;20382;-80
2021/06/08 00:13:55;;;;;;;;;;;;;;;14.05;62.38;97200.27;1692976;84;20110;-79
2021/06/08 00:16:21;;;;;;;;;;;;;;;14.03;61.76;97204.02;1692814;85;20134;-80
2021/06/08 00:18:47;;;;;;;;;;;;;;;14.00;61.19;97201.17;1692148;84;20134;-79
2021/06/08 00:21:13;;;;;;;;;;;;;;;13.98;62.35;97199.64;1692683;84;20102;-79
2021/06/08 00:23:39;;;;;;;;;;;;;;;13.95;61.85;97198.59;1693045;84;20126;-79
2021/06/08 00:26:07;;;;;;;;;;;;;;;13.90;63.66;97199.88;1694275;83;20130;-80
2021/06/08 00:28:33;;;;;;;;;;;;;;;13.86;62.08;97201.12;1694610;85;20145;-79
2021/06/08 00:31:02;;;;;;;;;;;;;;;13.84;64.28;97202.24;1693976;85;20102;-80
2021/06/08 00:33:29;;;;;;;;;;;;;;;13.81;62.91;97198.55;1694484;84;20415;-81
2021/06/08 00:35:55;;;;;;;;;;;;;;;13.79;64.92;97196.52;1695004;84;20395;-80
2021/06/08 00:38:21;;;;;;;;;;;;;;;13.77;62.01;97191.88;1693994;84;20106;-78
2021/06/08 00:40:47;;;;;;;;;;;;;;;13.75;62.79;97189.34;1694608;84;20113;-79
2021/06/08 00:43:13;;;;;;;;;;;;;;;13.72;63.14;97186.49;1677633;84;20398;-80
2021/06/08 00:45:39;;;;;;;;;;;;;;;13.71;63.80;97188.79;1695152;83;20394;-79
2021/06/08 00:48:06;;;;;;;;;;;;;;;13.70;64.98;97183.64;1695019;84;20402;-79
2021/06/08 00:50:33;;;;;;;;;;;;;;;13.69;62.57;97191.23;1694927;85;20161;-82
2021/06/08 00:52:59;;;;;;;;;;;;;;;13.69;62.49;97185.44;1695098;83;20101;-79
2021/06/08 00:55:26;;;;;;;;;;;;;;;13.69;62.80;97181.47;1694661;84;20105;-81
2021/06/08 00:57:52;;;;;;;;;;;;;;;13.68;63.08;97175.84;1694359;83;20090;-80
2021/06/08 01:00:19;;;;;;;;;;;;;;;13.67;63.80;97179.47;1695031;83;20093;-81
2021/06/08 01:02:45;;;;;;;;;;;;;;;13.67;63.12;97178.62;1694665;84;20109;-80
2021/06/08 01:05:12;;;;;;;;;;;;;;;13.66;62.89;97179.12;1694981;85;20117;-78
2021/06/08 01:07:38;;;;;;;;;;;;;;;13.63;63.82;97174.09;1666304;84;20156;-79
2021/06/08 01:10:07;;;;;;;;;;;;;;;13.63;62.40;97172.77;1689844;85;20403;-79
2021/06/08 01:12:34;;;;;;;;;;;;;;;13.63;63.20;97173.27;1694905;85;20406;-79
2021/06/08 01:15:00;;;;;;;;;;;;;;;13.62;62.28;97172.42;1694100;85;20113;-79
2021/06/08 01:17:26;;;;;;;;;;;;;;;13.63;64.43;97167.47;1695742;84;20125;-79
2021/06/08 01:19:57;;;;;;;;;;;;;;;13.66;63.16;97169.84;1694948;85;20409;-79
2021/06/08 01:22:24;;;;;;;;;;;;;;;13.67;62.83;97166.70;1695256;85;20177;-79
2021/06/08 01:24:52;;;;;;;;;;;;;;;13.69;65.64;97174.02;1695082;83;20157;-78
2021/06/08 01:27:19;;;;;;;;;;;;;;;13.70;63.85;97171.22;1695213;83;20142;-79
2021/06/08 01:29:48;;;;;;;;;;;;;;;13.73;64.14;97180.22;1695604;84;20150;-79
2021/06/08 01:32:15;;;;;;;;;;;;;;;13.76;64.61;97183.58;1695108;84;20114;-80
2021/06/08 01:34:41;;;;;;;;;;;;;;;13.77;63.73;97182.09;1695216;85;20125;-79
2021/06/08 01:37:08;;;;;;;;;;;;;;;13.80;64.31;97187.59;1694747;85;20105;-80
2021/06/08 01:39:36;;;;;;;;;;;;;;;13.81;64.36;97179.52;1693817;84;20118;-78
2021/06/08 01:42:03;;;;;;;;;;;;;;;13.84;65.21;97177.90;1695317;85;20106;-77
2021/06/08 01:44:30;;;;;;;;;;;;;;;13.87;63.72;97182.10;1694769;84;20441;-78
2021/06/08 01:46:56;;;;;;;;;;;;;;;13.88;64.84;97186.39;1693900;85;20155;-80
2021/06/08 01:49:22;;;;;;;;;;;;;;;13.89;64.49;97180.97;1695153;84;20145;-79
2021/06/08 01:51:52;;;;;;;;;;;;;;;13.87;66.09;97180.27;1695378;84;20158;-78
2021/06/08 01:54:22;;;;;;;;;;;;;;;13.88;62.97;97186.39;1695180;84;20126;-79
2021/06/08 01:56:52;;;;;;;;;;;;;;;13.85;64.27;97185.38;1695351;83;20110;-78
2021/06/08 01:59:28;;;;;;;;;;;;;;;13.86;64.56;97187.05;1694087;83;20162;-78
2021/06/08 02:02:30;;;;;;;;;;;;;;;13.88;64.65;97186.39;1695261;85;20255;-77
2021/06/08 02:05:10;;;;;;;;;;;;;;;13.89;65.10;97187.59;1695394;85;20146;-80
2021/06/08 02:07:42;;;;;;;;;;;;;;;13.87;64.55;97185.58;1695090;84;20140;-80
2021/06/08 02:10:34;;;;;;;;;;;;;;;13.85;64.80;97183.55;1694239;84;20106;-79
2021/06/08 02:13:13;;;;;;;;;;;;;;;13.85;64.69;97186.70;1695457;84;20427;-79
2021/06/08 02:15:42;;;;;;;;;;;;;;;13.84;64.20;97184.52;1695077;84;20254;-79
2021/06/08 02:18:10;;;;;;;;;;;;;;;13.85;65.09;97185.38;1695166;85;20101;-78
2021/06/08 02:20:38;;;;;;;;;;;;;;;13.85;65.15;97190.67;1676751;85;20113;-78
2021/06/08 02:23:06;;;;;;;;;;;;;;;13.82;64.95;97189.63;1694707;85;20118;-78
2021/06/08 02:25:33;;;;;;;;;;;;;;;13.76;64.54;97190.20;1702605;84;20154;-78
2021/06/08 02:28:01;;;;;;;;;;;;;;;13.69;64.49;97186.77;1718260;83;20109;-79
2021/06/08 02:30:27;;;;;;;;;;;;;;;13.62;64.47;97194.93;1717923;84;20109;-79
2021/06/08 02:32:55;;;;;;;;;;;;;;;13.54;65.00;97196.13;1718093;83;20141;-82
2021/06/08 02:35:23;;;;;;;;;;;;;;;13.46;66.77;97195.98;1698734;83;20109;-79
2021/06/08 02:37:51;;;;;;;;;;;;;;;13.36;64.96;97194.14;1721213;83;20117;-77
2021/06/08 02:40:18;;;;;;;;;;;;;;;13.27;65.78;97197.61;1721965;83;20121;-80
2021/06/08 02:42:45;;;;;;;;;;;;;;;13.20;65.80;97195.17;1723070;83;20121;-78
2021/06/08 02:45:12;;;;;;;;;;;;;;;13.13;65.50;97194.38;1692826;84;20098;-77
2021/06/08 02:47:38;;;;;;;;;;;;;;;13.07;65.03;97194.11;1722742;83;20105;-79
2021/06/08 02:50:06;;;;;;;;;;;;;;;13.02;65.87;97191.02;1722343;83;20125;-80
2021/06/08 02:52:34;;;;;;;;;;;;;;;12.96;65.13;97190.61;1722567;83;20402;-79
2021/06/08 02:55:02;;;;;;;;;;;;;;;12.95;65.18;97194.22;1722149;82;20149;-77
2021/06/08 02:57:28;;;;;;;;;;;;;;;12.94;64.94;97193.87;1723040;83;20097;-78
2021/06/08 03:00:02;;;;;;;;;;;;;;;12.91;63.12;97188.84;1722890;83;20406;-80
2021/06/08 03:02:24;;;;;;;;;;;;;;;12.92;64.67;97198.45;1721341;83;20410;-79
2021/06/08 03:05:05;;;;;;;;;;;;;;;12.92;64.63;97205.06;1722735;83;20101;-80
2021/06/08 03:07:34;;;;;;;;;;;;;;;12.92;65.31;97204.23;1723048;82;20129;-79
2021/06/08 03:10:12;;;;;;;;;;;;;;;12.93;66.12;97204.09;1722881;83;20109;-79
2021/06/08 03:12:42;;;;;;;;;;;;;;;12.97;66.31;97207.30;1722877;83;20126;-79
2021/06/08 03:15:09;;;;;;;;;;;;;;;13.00;65.01;97203.08;1715108;83;20105;-80
2021/06/08 03:17:36;;;;;;;;;;;;;;;13.07;65.64;97206.84;1721200;83;20133;-78
2021/06/08 03:20:11;;;;;;;;;;;;;;;13.12;64.82;97203.78;1721561;83;20129;-79
2021/06/08 03:22:40;;;;;;;;;;;;;;;13.18;63.67;97203.73;1722591;83;20093;-80
2021/06/08 03:25:07;;;;;;;;;;;;;;;13.23;64.12;97203.67;1722456;82;20406;-79
2021/06/08 03:27:33;;;;;;;;;;;;;;;13.27;64.80;97206.88;1727347;83;20393;-79
2021/06/08 03:30:00;;;;;;;;;;;;;;;13.32;64.19;97208.61;1727164;83;20125;-77
2021/06/08 03:32:28;;;;;;;;;;;;;;;13.35;64.41;97210.99;1727177;83;20101;-84
2021/06/08 03:34:55;;;;;;;;;;;;;;;13.40;63.61;97213.25;1727187;83;20108;-79
2021/06/08 03:37:24;;;;;;;;;;;;;;;13.48;63.38;97207.28;1726540;83;20120;-79
2021/06/08 03:39:52;;;;;;;;;;;;;;;13.53;64.18;97211.19;1725875;83;20130;-79
2021/06/08 03:42:19;;;;;;;;;;;;;;;13.59;62.92;97213.27;1726995;83;20178;-82
2021/06/08 03:44:46;;;;;;;;;;;;;;;13.67;63.41;97219.67;1726352;83;20152;-86
2021/06/08 03:47:12;;;;;;;;;;;;;;;13.71;63.18;97213.95;1727079;83;20135;-85
2021/06/08 03:49:39;;;;;;;;;;;;;;;13.80;63.54;97215.41;1724850;83;20101;-86
2021/06/08 03:52:05;;;;;;;;;;;;;;;13.88;62.48;97220.84;1725853;83;20410;-80
2021/06/08 03:54:32;;;;;;;;;;;;;;;13.94;62.41;97219.44;1726179;83;20093;-80
2021/06/08 03:56:59;;;;;;;;;;;;;;;14.01;62.64;97219.25;1726498;83;20100;-80
2021/06/08 03:59:27;;;;;;;;;;;;;;;14.11;62.78;97224.52;1726940;83;20141;-80
2021/06/08 04:01:53;;;;;;;;;;;;;;;14.21;63.05;97224.83;1726884;83;20149;-79
2021/06/08 04:04:20;;;;;;;;;;;;;;;14.33;62.83;97224.20;1727200;83;20100;-83
2021/06/08 04:06:47;;;;;;;;;;;;;;;14.44;62.58;97224.51;1726400;83;20105;-80
2021/06/08 04:09:16;;;;;;;;;;;;;;;14.57;61.54;97221.53;1726074;83;20125;-79
2021/06/08 04:11:43;;;;;;;;;;;;;;;14.72;62.07;97222.39;1726939;83;20145;-78
2021/06/08 04:14:10;;;;;;;;;;;;;;;14.83;62.05;97228.84;1696945;83;20141;-76
2021/06/08 04:16:37;;;;;;;;;;;;;;;15.02;62.06;97220.44;1727278;83;20149;-82
2021/06/08 04:19:10;;;;;;;;;;;;;;;15.39;61.81;97228.33;1703262;83;20156;-79
2021/06/08 04:21:36;;;;;;;;;;;;;;;15.74;61.26;97224.00;1727395;83;20101;-80
2021/06/08 04:24:05;;;;;;;;;;;;;;;16.21;61.35;97226.05;1726960;83;20105;-81
2021/06/08 04:26:33;;;;;;;;;;;;;;;16.85;60.28;97225.73;1706673;83;20150;-79
2021/06/08 04:28:59;;;;;;;;;;;;;;;17.45;59.19;97223.45;1673544;85;20154;-78
2021/06/08 04:31:26;;;;;;;;;;;;;;;17.80;57.84;97218.00;1664583;86;20177;-80
2021/06/08 04:33:53;;;;;;;;;;;;;;;18.00;57.14;97223.86;1665472;85;20470;-80
2021/06/08 04:36:20;;;;;;;;;;;;;;;18.52;57.23;97219.11;1689656;85;20161;-78
2021/06/08 04:38:47;;;;;;;;;;;;;;;19.29;56.92;97220.36;1689655;85;20098;-79
2021/06/08 04:41:14;;;;;;;;;;;;;;;20.09;55.66;97219.13;1688587;85;20118;-80
2021/06/08 04:43:40;;;;;;;;;;;;;;;20.88;53.24;97225.06;1689086;85;20415;-80
2021/06/08 04:46:11;;;;;;;;;;;;;;;21.68;50.74;97218.47;1684360;85;20132;-78
2021/06/08 04:48:38;;;;;;;;;;;;;;;22.40;53.17;97226.55;1688926;85;20161;-78
2021/06/08 04:51:05;;;;;;;;;;;;;;;23.13;46.81;97221.28;1689776;85;20098;-78
2021/06/08 04:53:31;;;;;;;;;;;;;;;23.82;45.24;97216.22;1690263;85;20134;-78
2021/06/08 04:55:57;;;;;;;;;;;;;;;24.47;44.73;97220.17;1690080;84;20094;-78
2021/06/08 04:58:23;;;;;;;;;;;;;;;25.04;42.08;97214.27;1689604;85;20149;-78
2021/06/08 05:01:14;;;;;;;;;;;;;;;25.53;39.05;97218.73;1688710;85;20090;-78
2021/06/08 05:03:41;;;;;;;;;;;;;;;26.01;39.06;97222.27;1689223;85;20411;-80
2021/06/08 05:06:10;;;;;;;;;;;;;;;26.47;40.28;97222.96;1690506;85;20394;-81
2021/06/08 05:08:39;;;;;;;;;;;;;;;26.84;38.32;97222.73;1688918;84;20513;-81
2021/06/08 05:11:09;;;;;;;;;;;;;;;27.25;39.67;97219.84;1677132;85;20142;-80
2021/06/08 05:13:36;;;;;;;;;;;;;;;27.66;39.91;97219.65;1690485;85;20097;-86
2021/06/08 05:16:03;;;;;;;;;;;;;;;27.93;35.85;97219.25;1689916;84;20142;-85
2021/06/08 05:18:31;;;;;;;;;;;;;;;28.29;35.48;97216.64;1690857;84;20105;-85
2021/06/08 05:20:58;;;;;;;;;;;;;;;28.69;34.43;97218.63;1690690;84;20154;-86
2021/06/08 05:23:25;;;;;;;;;;;;;;;28.80;36.55;97215.11;1690789;85;20189;-84
2021/06/08 05:25:52;;;;;;;;;;;;;;;29.01;38.11;97217.42;1694402;83;20445;-84
2021/06/08 05:28:19;;;;;;;;;;;;;;;29.40;39.35;97217.70;1723280;83;20101;-86
2021/06/08 05:30:48;;;;;;;;;;;;;;;29.60;31.68;97210.50;1695685;83;20158;-87
2021/06/08 05:33:19;;;;;;;;;;;;;;;29.77;32.87;97224.09;1723819;83;20105;-85
2021/06/08 05:35:46;;;;;;;;;;;;;;;30.05;32.38;97219.20;1721130;83;20109;-86
2021/06/08 05:38:13;;;;;;;;;;;;;;;30.28;31.17;97216.02;1721264;83;20097;-83
2021/06/08 05:40:41;;;;;;;;;;;;;;;30.59;33.24;97214.32;1723486;83;20105;-85
2021/06/08 05:43:07;;;;;;;;;;;;;;;30.80;34.89;97215.45;1726999;82;20099;-85
2021/06/08 05:45:34;;;;;;;;;;;;;;;31.04;33.53;97217.41;1754701;82;20115;-87
2021/06/08 05:48:01;;;;;;;;;;;;;;;31.21;30.44;97211.91;1740122;82;20109;-86
2021/06/08 05:50:28;;;;;;;;;;;;;;;31.40;28.76;97214.30;1704879;83;20197;-86
2021/06/08 05:52:54;;;;;;;;;;;;;;;31.51;28.73;97207.09;1701679;83;20101;-85
2021/06/08 05:55:25;;;;;;;;;;;;;;;31.78;28.81;97214.72;1725101;83;20117;-85
2021/06/08 05:57:56;;;;;;;;;;;;;;;32.02;26.99;97211.69;1724548;83;20432;-85
2021/06/08 06:00:22;;;;;;;;;;;;;;;32.30;28.44;97215.20;1724487;83;20113;-85
2021/06/08 06:02:51;;;;;;;;;;;;;;;32.44;27.36;97205.20;1722868;83;20112;-84
2021/06/08 06:05:17;;;;;;;;;;;;;;;32.76;26.50;97198.30;1698142;83;20090;-84
2021/06/08 06:07:43;;;;;;;;;;;;;;;33.04;29.57;97206.39;1720405;83;20410;-86
2021/06/08 06:10:11;;;;;;;;;;;;;;;33.18;26.54;97207.53;1720450;83;20094;-85
2021/06/08 06:12:38;;;;;;;;;;;;;;;33.33;24.78;97202.70;1720559;83;20125;-85
2021/06/08 06:15:06;;;;;;;;;;;;;;;33.45;29.99;97202.48;1720370;83;20130;-86
2021/06/08 06:17:40;;;;;;;;;;;;;;;33.49;27.33;97199.47;1721432;83;20100;-83
2021/06/08 06:20:12;;;;;;;;;;;;;;;33.39;26.80;97196.70;1712349;84;20436;-86
2021/06/08 06:22:38;;;;;;;;;;;;;;;33.35;25.81;97201.09;1717421;82;20106;-85
2021/06/08 06:25:10;;;;;;;;;;;;;;;33.59;26.60;97195.40;1715549;84;20125;-85
2021/06/08 06:27:40;;;;;;;;;;;;;;;33.77;25.99;97200.91;1708109;84;20134;-84
2021/06/08 06:30:10;;;;;;;;;;;;;;;34.00;24.01;97200.68;1705637;84;20197;-84
2021/06/08 06:32:37;;;;;;;;;;;;;;;34.23;23.80;97202.84;1705915;84;20141;-82
2021/06/08 06:35:04;;;;;;;;;;;;;;;34.37;24.02;97199.56;1679637;83;20111;-82
2021/06/08 06:37:31;;;;;;;;;;;;;;;34.42;24.03;97198.77;1703629;84;20126;-86
2021/06/08 06:39:59;;;;;;;;;;;;;;;34.59;24.00;97198.45;1707294;84;20106;-85
2021/06/08 06:42:28;;;;;;;;;;;;;;;34.72;24.99;97199.25;1706084;84;20418;-84
2021/06/08 06:44:55;;;;;;;;;;;;;;;34.86;23.58;97192.08;1719374;83;20436;-85
2021/06/08 06:47:21;;;;;;;;;;;;;;;34.97;23.44;97186.07;1721782;82;20134;-85
2021/06/08 06:49:47;;;;;;;;;;;;;;;35.04;24.76;97191.22;1721600;83;20088;-85
2021/06/08 06:52:14;;;;;;;;;;;;;;;34.93;23.47;97183.61;1707382;83;20137;-83
2021/06/08 06:54:40;;;;;;;;;;;;;;;34.79;24.88;97194.30;1705534;84;20129;-85
2021/06/08 06:57:06;;;;;;;;;;;;;;;34.75;23.69;97194.60;1681631;84;20472;-84
2021/06/08 06:59:33;;;;;;;;;;;;;;;34.91;24.74;97186.36;1708873;84;20089;-83
2021/06/08 07:01:59;;;;;;;;;;;;;;;34.82;23.56;97184.70;1708356;84;20105;-85
2021/06/08 07:04:26;;;;;;;;;;;;;;;34.95;23.56;97184.69;1705788;84;20150;-84
2021/06/08 07:06:53;;;;;;;;;;;;;;;34.97;25.25;97183.33;1706575;84;20109;-82
2021/06/08 07:09:24;;;;;;;;;;;;;;;34.96;22.04;97183.59;1705865;84;20141;-84
2021/06/08 07:11:52;;;;;;;;;;;;;;;34.95;25.70;97187.42;1707055;84;20109;-83
2021/06/08 07:14:19;;;;;;;;;;;;;;;35.03;23.55;97180.83;1702345;84;20102;-85
2021/06/08 07:16:50;;;;;;;;;;;;;;;35.15;24.94;97183.80;1706455;84;20157;-83
2021/06/08 07:19:19;;;;;;;;;;;;;;;35.20;22.00;97188.44;1704442;82;20464;-84
2021/06/08 07:21:46;;;;;;;;;;;;;;;35.21;21.95;97178.56;1696982;84;20186;-85
2021/06/08 07:24:13;;;;;;;;;;;;;;;35.27;25.27;97186.20;1702364;84;20397;-84
2021/06/08 07:26:40;;;;;;;;;;;;;;;35.21;22.37;97181.86;1707352;83;20117;-84
2021/06/08 07:29:09;;;;;;;;;;;;;;;35.12;22.83;97178.34;1721796;83;20113;-83
2021/06/08 07:32:02;;;;;;;;;;;;;;;35.01;23.30;97184.39;1724149;83;20124;-81
2021/06/08 07:34:43;;;;;;;;;;;;;;;34.96;24.19;97181.69;1724590;83;20105;-85
2021/06/08 07:37:16;;;;;;;;;;;;;;;34.69;22.69;97187.48;1725357;83;20402;-86
2021/06/08 07:39:49;;;;;;;;;;;;;;;34.79;23.19;97181.17;1725434;83;20426;-82
2021/06/08 07:42:25;;;;;;;;;;;;;;;34.82;22.56;97184.17;1724797;83;20188;-83
2021/06/08 07:44:58;;;;;;;;;;;;;;;34.88;21.85;97165.81;1724777;81;20205;-85
2021/06/08 07:47:26;;;;;;;;;;;;;;;35.07;22.01;97181.65;1724829;83;20175;-85
2021/06/08 07:49:54;;;;;;;;;;;;;;;34.96;22.15;97180.32;1725715;83;20150;-84
2021/06/08 07:52:21;;;;;;;;;;;;;;;34.14;22.00;97175.78;1725491;83;20129;-83
2021/06/08 07:54:47;;;;;;;;;;;;;;;33.71;23.43;97180.11;1725518;83;20198;-81
2021/06/08 07:57:14;;;;;;;;;;;;;;;33.75;22.82;97172.19;1725631;83;20122;-81
2021/06/08 07:59:41;;;;;;;;;;;;;;;33.64;23.47;97177.63;1725333;83;20167;-83
2021/06/08 08:02:10;;;;;;;;;;;;;;;33.08;24.39;97181.58;1724593;81;20105;-80
2021/06/08 08:04:40;;;;;;;;;;;;;;;32.15;23.58;97179.63;1714414;83;20171;-86
2021/06/08 08:07:06;;;;;;;;;;;;;;;31.73;23.68;97175.19;1687295;83;20101;-87
2021/06/08 08:09:33;;;;;;;;;;;;;;;31.69;24.92;97175.95;1724583;83;20449;-87
2021/06/08 08:12:00;;;;;;;;;;;;;;;31.54;25.08;97171.15;1722533;82;20117;-87
2021/06/08 08:14:26;;;;;;;;;;;;;;;31.23;25.85;97173.56;1725818;83;20113;-87
2021/06/08 08:16:57;;;;;;;;;;;;;;;31.22;25.08;97169.20;1723665;83;20110;-85
2021/06/08 08:19:25;;;;;;;;;;;;;;;31.25;25.97;97180.91;1725491;83;20157;-85
2021/06/08 08:21:51;;;;;;;;;;;;;;;31.23;24.69;97172.20;1725351;83;20393;-86
2021/06/08 08:24:18;;;;;;;;;;;;;;;31.23;25.21;97172.20;1725408;83;20117;-83
2021/06/08 08:26:45;;;;;;;;;;;;;;;31.30;23.76;97170.91;1713291;83;20103;-87
2021/06/08 08:29:11;;;;;;;;;;;;;;;31.45;25.46;97166.72;1689953;84;20143;-85
2021/06/08 08:31:38;;;;;;;;;;;;;;;31.61;24.43;97170.39;1715671;84;20118;-87
2021/06/08 08:34:05;;;;;;;;;;;;;;;30.48;23.80;97171.18;1716776;84;20117;-86
2021/06/08 08:36:38;;;;;;;;;;;;;;;29.49;24.93;97166.03;1716344;84;20450;-85
2021/06/08 08:39:06;;;;;;;;;;;;;;;29.25;25.72;97174.26;1717685;83;20141;-86
2021/06/08 08:41:32;;;;;;;;;;;;;;;28.45;26.44;97160.37;1713415;84;20172;-84
2021/06/08 08:44:00;;;;;;;;;;;;;;;28.47;26.88;97175.03;1711762;84;20391;-86
2021/06/08 08:46:40;;;;;;;;;;;;;;;28.15;26.95;97169.44;1717883;83;20110;-89
2021/06/08 08:49:06;;;;;;;;;;;;;;;27.50;27.05;97175.10;1779193;80;20390;-81
2021/06/08 08:51:34;;;;;;;;;;;;;;;26.98;27.54;97170.14;1756243;81;20086;-87
2021/06/08 08:54:01;;;;;;;;;;;;;;;26.85;28.81;97171.66;1763684;79;20139;-88
2021/06/08 08:56:31;;;;;;;;;;;;;;;26.91;29.75;97183.73;1740734;82;20408;-85
2021/06/08 08:59:03;;;;;;;;;;;;;;;26.55;30.43;97175.08;1741457;82;20111;-85
2021/06/08 09:01:30;;;;;;;;;;;;;;;26.52;30.96;97177.70;1791317;79;20148;-86
2021/06/08 09:04:20;;;;;;;;;;;;;;;26.91;30.30;97163.45;1779729;79;20192;-84
2021/06/08 09:06:54;;;;;;;;;;;;;;;27.35;29.95;97158.44;1730139;82;20433;-85
2021/06/08 09:09:20;;;;;;;;;;;;;;;27.85;29.47;97161.37;1754808;82;20095;-86
2021/06/08 09:11:47;;;;;;;;;;;;;;;27.68;28.34;97172.03;1767084;79;20411;-90
2021/06/08 09:16:56;;;;;;;;;;;;;;;26.52;30.45;97159.30;1844936;78;20392;-88
2021/06/08 09:19:31;;;;;;;;;;;;;;;26.40;30.51;97168.16;1845325;78;20096;-88
2021/06/08 09:22:01;;;;;;;;;;;;;;;26.47;30.55;97166.22;1845154;78;20096;-87
2021/06/08 09:24:40;;;;;;;;;;;;;;;26.43;31.16;97161.48;1844863;78;20409;-89
2021/06/08 09:27:11;;;;;;;;;;;;;;;26.19;31.26;97162.12;1844301;77;20124;-86
2021/06/08 09:29:45;;;;;;;;;;;;;;;26.07;31.26;97157.09;1874234;76;20109;-86
2021/06/08 09:32:27;;;;;;;;;;;;;;;25.85;31.46;97161.52;1882524;76;20134;-89
2021/06/08 09:35:03;;;;;;;;;;;;;;;25.80;31.29;97151.92;1837640;75;20122;-87
2021/06/08 09:37:39;;;;;;;;;;;;;;;25.61;31.72;97157.78;1812400;78;20095;-87
2021/06/08 09:40:23;;;;;;;;;;;;;;;25.48;32.01;97162.72;1820721;78;20379;-90
2021/06/08 09:42:51;;;;;;;;;;;;;;;25.51;32.07;97151.50;1845375;78;20116;-89
2021/06/08 09:45:23;;;;;;;;;;;;;;;25.67;31.84;97156.06;1845009;78;20096;-86
2021/06/08 09:47:59;;;;;;;;;;;;;;;25.81;31.91;97145.98;1845078;76;20103;-89
2021/06/08 09:50:35;;;;;;;;;;;;;;;26.06;31.83;97149.23;1849720;76;20138;-90
2021/06/08 09:53:22;;;;;;;;;;;;;;;26.26;31.44;97150.42;1852980;76;20394;-88
2021/06/08 09:56:00;;;;;;;;;;;;;;;26.04;31.44;97142.68;1856615;75;20093;-86
2021/06/08 09:58:27;;;;;;;;;;;;;;;25.72;31.99;97140.05;1850943;76;20092;-90
2021/06/08 10:01:14;;;;;;;;;;;;;;;25.66;32.03;97143.09;1845134;76;20182;-85
2021/06/08 10:03:45;;;;;;;;;;;;;;;25.60;32.02;97137.74;1846120;76;20119;-88
2021/06/08 10:06:17;;;;;;;;;;;;;;;25.57;32.57;97129.57;1844880;78;20092;-82
2021/06/08 10:08:52;;;;;;;;;;;;;;;25.81;32.56;97122.54;1848594;76;20129;-84
2021/06/08 10:11:21;;;;;;;;;;;;;;;25.97;32.77;97122.52;1859558;75;20086;-85
2021/06/08 10:13:48;;;;;;;;;;;;;;;25.94;32.64;97125.64;1854742;76;20100;-83
2021/06/08 10:16:22;;;;;;;;;;;;;;;25.97;32.31;97127.06;1849620;77;20092;-83
2021/06/08 10:18:51;;;;;;;;;;;;;;;25.76;32.38;97125.05;1853163;77;20100;-84
2021/06/08 10:21:33;;;;;;;;;;;;;;;25.56;32.72;97130.11;1854037;76;20092;-84
2021/06/08 10:24:05;;;;;;;;;;;;;;;25.50;32.91;97115.30;1806253;77;20393;-85
2021/06/08 10:26:34;;;;;;;;;;;;;;;25.63;32.37;97110.33;1856344;76;20457;-82
2021/06/08 10:29:06;;;;;;;;;;;;;;;25.66;32.54;97107.20;1921961;74;20102;-89
2021/06/08 10:31:35;;;;;;;;;;;;;;;25.81;32.73;97112.25;1878268;74;20142;-76
2021/06/08 10:34:06;;;;;;;;;;;;;;;25.99;32.26;97112.83;1861526;74;20400;-80
2021/06/08 10:36:33;;;;;;;;;;;;;;;26.09;32.17;97110.99;1914075;74;20122;-83
2021/06/08 10:39:03;;;;;;;;;;;;;;;25.90;32.73;97108.22;1875494;76;20098;-82
2021/06/08 10:41:35;;;;;;;;;;;;;;;25.90;33.22;97103.36;1846158;77;20540;-87
2021/06/08 10:44:02;;;;;;;;;;;;;;;26.03;33.15;97083.81;1864710;76;20152;-85
2021/06/08 10:46:44;;;;;;;;;;;;;;;26.34;32.69;97103.69;1854152;76;20448;-84
2021/06/08 10:49:13;;;;;;;;;;;;;;;26.26;32.45;97098.59;1854121;77;20127;-86
2021/06/08 10:51:39;;;;;;;;;;;;;;;26.36;32.53;97104.81;1852670;76;20076;-84
2021/06/08 10:54:18;;;;;;;;;;;;;;;26.33;31.51;97096.63;1885065;76;20117;-83
2021/06/08 10:57:00;;;;;;;;;;;;;;;26.38;31.97;97092.41;1855344;76;20235;-83
2021/06/08 10:59:36;;;;;;;;;;;;;;;26.63;32.01;97091.80;1853338;76;20100;-88
2021/06/08 11:02:03;;;;;;;;;;;;;;;26.87;31.22;97093.32;1853970;76;20145;-83
2021/06/08 11:04:51;;;;;;;;;;;;;;;26.86;30.94;97075.98;1867598;74;20120;-85
2021/06/08 11:07:37;;;;;;;;;;;;;;;27.08;31.43;97074.95;1883191;76;20145;-86
2021/06/08 11:10:23;;;;;;;;;;;;;;;27.42;30.42;97082.03;1877661;76;20125;-84
2021/06/08 11:12:49;;;;;;;;;;;;;;;27.51;30.04;97074.45;1844431;76;20124;-82
2021/06/08 11:15:22;;;;;;;;;;;;;;;27.48;30.42;97078.97;1867636;75;20167;-82
2021/06/08 11:17:48;;;;;;;;;;;;;;;27.49;30.86;97081.97;1810183;78;20120;-82
2021/06/08 11:20:18;;;;;;;;;;;;;;;27.51;30.86;97081.22;1812065;78;20467;-86
2021/06/08 11:22:50;;;;;;;;;;;;;;;27.62;30.36;97070.10;1809650;78;20125;-88
2021/06/08 11:25:42;;;;;;;;;;;;;;;27.63;30.54;97070.41;1812609;78;20477;-81
2021/06/08 11:28:15;;;;;;;;;;;;;;;27.79;30.28;97067.54;1839992;78;20142;-86
2021/06/08 11:30:44;;;;;;;;;;;;;;;27.63;29.83;97069.05;1812643;78;20410;-86
2021/06/08 11:33:28;;;;;;;;;;;;;;;27.61;29.62;97065.20;1816086;78;20166;-88
2021/06/08 11:35:54;;;;;;;;;;;;;;;27.77;29.49;97057.47;1811743;78;20173;-83
2021/06/08 11:38:29;;;;;;;;;;;;;;;27.90;28.98;97066.18;1813056;78;20129;-87
2021/06/08 11:41:01;;;;;;;;;;;;;;;27.95;29.61;97056.51;1810043;79;20455;-85
2021/06/08 11:43:31;;;;;;;;;;;;;;;27.93;29.17;97066.23;1831648;78;20124;-84
2021/06/08 11:46:04;;;;;;;;;;;;;;;27.65;29.22;97058.27;1815714;78;20170;-83
2021/06/08 11:48:38;;;;;;;;;;;;;;;27.49;29.76;97053.02;1768616;80;20404;-83
2021/06/08 11:51:17;;;;;;;;;;;;;;;27.65;30.23;97057.47;1769260;80;20106;-86
2021/06/08 11:54:02;;;;;;;;;;;;;;;27.45;29.22;97050.49;1774125;79;20419;-83
2021/06/08 11:56:52;;;;;;;;;;;;;;;27.27;29.86;97056.25;1717333;83;20123;-82
2021/06/08 11:59:39;;;;;;;;;;;;;;;27.22;30.01;97055.30;1713749;81;20108;-83
2021/06/08 12:02:06;;;;;;;;;;;;;;;27.25;29.48;97049.40;1728578;82;20155;-87
2021/06/08 12:04:53;;;;;;;;;;;;;;;27.28;29.23;97047.05;1735601;82;20107;-82
2021/06/08 12:07:19;;;;;;;;;;;;;;;27.39;29.92;97046.80;1760806;80;20187;-83
2021/06/08 12:09:47;;;;;;;;;;;;;;;27.56;30.06;97045.60;1785109;80;20136;-83
2021/06/08 12:12:17;;;;;;;;;;;;;;;27.61;28.34;97046.80;1755162;80;20415;-85
2021/06/08 12:14:53;;;;;;;;;;;;;;;27.49;28.68;97044.89;1754377;82;20421;-84
2021/06/08 12:17:20;;;;;;;;;;;;;;;27.28;27.97;97046.24;1749898;81;20110;-84
2021/06/08 12:19:47;;;;;;;;;;;;;;;27.39;28.86;97037.33;1758158;80;20098;-84
2021/06/08 12:22:25;;;;;;;;;;;;;;;27.53;28.88;97033.06;1785074;80;20088;-81
2021/06/08 12:24:57;;;;;;;;;;;;;;;27.45;28.85;97039.67;1757497;80;20153;-82
2021/06/08 12:27:35;;;;;;;;;;;;;;;27.14;28.24;97033.98;1848137;77;20137;-83
2021/06/08 12:30:03;;;;;;;;;;;;;;;26.84;28.81;97036.17;1850150;77;20141;-85
2021/06/08 12:32:29;;;;;;;;;;;;;;;26.53;29.08;97043.41;1848637;77;20130;-83
2021/06/08 12:34:56;;;;;;;;;;;;;;;26.12;29.70;97037.64;1832166;77;20136;-84
2021/06/08 12:37:23;;;;;;;;;;;;;;;26.21;29.74;97042.23;1857359;77;20133;-86
2021/06/08 12:39:55;;;;;;;;;;;;;;;26.38;29.85;97041.08;1834280;77;20144;-87
2021/06/08 12:42:23;;;;;;;;;;;;;;;26.57;29.42;97035.16;1833769;77;20469;-89
2021/06/08 12:44:50;;;;;;;;;;;;;;;26.76;28.76;97035.42;1825237;77;20128;-88
2021/06/08 12:47:18;;;;;;;;;;;;;;;26.79;28.94;97024.70;1847742;77;20151;-84
2021/06/08 12:49:44;;;;;;;;;;;;;;;26.88;29.51;97033.30;1843697;77;20146;-87
2021/06/08 12:52:18;;;;;;;;;;;;;;;27.03;29.64;97035.58;1831728;77;20125;-85
2021/06/08 12:54:48;;;;;;;;;;;;;;;27.20;29.44;97031.70;1807155;79;20397;-83
2021/06/08 12:57:32;;;;;;;;;;;;;;;27.26;28.39;97029.41;1777696;81;20171;-85
2021/06/08 13:00:09;;;;;;;;;;;;;;;27.34;28.70;97035.83;1781638;81;20124;-89
2021/06/08 13:02:38;;;;;;;;;;;;;;;27.36;28.41;97030.21;1783132;81;20105;-81
2021/06/08 13:05:28;;;;;;;;;;;;;;;27.45;27.92;97036.13;1779478;80;20402;-79